sensor_id;sensor_type;location;lat;lon;timestamp;P1;durP1;ratioP1;P2;durP2;ratioP2
25932;SDS011;13731;51.166;4.474;2023-04-25T00:01:32;44.88;;;41.75;;
25932;SDS011;13731;51.166;4.474;2023-04-25T00:04:01;51.58;;;47.35;;
25932;SDS011;13731;51.166;4.474;2023-04-25T00:06:28;40.88;;;37.58;;
25932;SDS011;13731;51.166;4.474;2023-04-25T00:08:55;47.67;;;44.25;;
25932;SDS011;13731;51.166;4.474;2023-04-25T00:11:22;52.97;;;49.05;;
25932;SDS011;13731;51.166;4.474;2023-04-25T00:13:48;42.75;;;39.33;;
25932;SDS011;13731;51.166;4.474;2023-04-25T00:16:15;43.65;;;40.50;;
25932;SDS011;13731;51.166;4.474;2023-04-25T00:18:42;47.97;;;44.47;;
25932;SDS011;13731;51.166;4.474;2023-04-25T00:21:08;53.13;;;49.33;;
25932;SDS011;13731;51.166;4.474;2023-04-25T00:23:34;51.42;;;47.60;;
25932;SDS011;13731;51.166;4.474;2023-04-25T00:26:03;61.03;;;56.97;;
25932;SDS011;13731;51.166;4.474;2023-04-25T00:28:29;58.80;;;54.65;;
25932;SDS011;13731;51.166;4.474;2023-04-25T00:30:55;52.42;;;48.78;;
25932;SDS011;13731;51.166;4.474;2023-04-25T00:33:21;62.55;;;58.08;;
25932;SDS011;13731;51.166;4.474;2023-04-25T00:35:47;68.45;;;64.47;;
25932;SDS011;13731;51.166;4.474;2023-04-25T00:38:13;50.10;;;46.55;;
25932;SDS011;13731;51.166;4.474;2023-04-25T00:40:38;65.40;;;60.28;;
25932;SDS011;13731;51.166;4.474;2023-04-25T00:43:04;65.50;;;61.13;;
25932;SDS011;13731;51.166;4.474;2023-04-25T00:45:30;63.83;;;59.35;;
25932;SDS011;13731;51.166;4.474;2023-04-25T00:47:56;69.22;;;64.78;;
25932;SDS011;13731;51.166;4.474;2023-04-25T00:50:22;62.63;;;58.05;;
25932;SDS011;13731;51.166;4.474;2023-04-25T00:52:49;51.70;;;47.25;;
25932;SDS011;13731;51.166;4.474;2023-04-25T00:55:14;61.17;;;56.97;;
25932;SDS011;13731;51.166;4.474;2023-04-25T00:57:41;67.25;;;62.90;;
25932;SDS011;13731;51.166;4.474;2023-04-25T01:00:07;76.70;;;71.40;;
25932;SDS011;13731;51.166;4.474;2023-04-25T01:02:38;68.25;;;63.53;;
25932;SDS011;13731;51.166;4.474;2023-04-25T01:05:05;66.53;;;61.90;;
25932;SDS011;13731;51.166;4.474;2023-04-25T01:07:31;64.57;;;60.53;;
25932;SDS011;13731;51.166;4.474;2023-04-25T01:09:57;63.22;;;58.97;;
25932;SDS011;13731;51.166;4.474;2023-04-25T01:12:23;70.03;;;65.13;;
25932;SDS011;13731;51.166;4.474;2023-04-25T01:14:49;69.25;;;64.30;;
25932;SDS011;13731;51.166;4.474;2023-04-25T01:17:15;69.43;;;64.97;;
25932;SDS011;13731;51.166;4.474;2023-04-25T01:19:42;76.20;;;70.95;;
25932;SDS011;13731;51.166;4.474;2023-04-25T01:22:09;66.05;;;61.92;;
25932;SDS011;13731;51.166;4.474;2023-04-25T01:24:35;72.07;;;67.35;;
25932;SDS011;13731;51.166;4.474;2023-04-25T01:27:02;48.80;;;44.53;;
25932;SDS011;13731;51.166;4.474;2023-04-25T01:29:29;49.70;;;45.67;;
25932;SDS011;13731;51.166;4.474;2023-04-25T01:31:56;45.05;;;41.53;;
25932;SDS011;13731;51.166;4.474;2023-04-25T01:34:23;47.25;;;44.00;;
25932;SDS011;13731;51.166;4.474;2023-04-25T01:36:50;53.83;;;49.83;;
25932;SDS011;13731;51.166;4.474;2023-04-25T01:39:17;49.55;;;45.72;;
25932;SDS011;13731;51.166;4.474;2023-04-25T01:41:44;48.10;;;43.90;;
25932;SDS011;13731;51.166;4.474;2023-04-25T01:44:11;50.75;;;46.60;;
25932;SDS011;13731;51.166;4.474;2023-04-25T01:46:38;57.00;;;52.67;;
25932;SDS011;13731;51.166;4.474;2023-04-25T01:49:04;61.40;;;57.08;;
25932;SDS011;13731;51.166;4.474;2023-04-25T01:51:31;53.70;;;49.95;;
25932;SDS011;13731;51.166;4.474;2023-04-25T01:53:58;51.30;;;47.53;;
25932;SDS011;13731;51.166;4.474;2023-04-25T01:56:25;52.78;;;48.97;;
25932;SDS011;13731;51.166;4.474;2023-04-25T01:58:56;56.53;;;51.80;;
25932;SDS011;13731;51.166;4.474;2023-04-25T02:01:51;59.83;;;55.30;;
25932;SDS011;13731;51.166;4.474;2023-04-25T02:04:26;60.40;;;56.70;;
25932;SDS011;13731;51.166;4.474;2023-04-25T02:06:52;68.53;;;63.80;;
25932;SDS011;13731;51.166;4.474;2023-04-25T02:09:17;61.78;;;57.35;;
25932;SDS011;13731;51.166;4.474;2023-04-25T02:11:49;58.20;;;53.85;;
25932;SDS011;13731;51.166;4.474;2023-04-25T02:14:33;54.97;;;50.80;;
25932;SDS011;13731;51.166;4.474;2023-04-25T02:17:04;60.42;;;55.20;;
25932;SDS011;13731;51.166;4.474;2023-04-25T02:19:31;62.90;;;58.03;;
25932;SDS011;13731;51.166;4.474;2023-04-25T02:21:57;60.78;;;56.42;;
25932;SDS011;13731;51.166;4.474;2023-04-25T02:24:24;59.92;;;55.53;;
25932;SDS011;13731;51.166;4.474;2023-04-25T02:26:50;61.30;;;56.33;;
25932;SDS011;13731;51.166;4.474;2023-04-25T02:29:16;61.22;;;56.58;;
25932;SDS011;13731;51.166;4.474;2023-04-25T02:31:42;55.08;;;51.17;;
25932;SDS011;13731;51.166;4.474;2023-04-25T02:34:07;55.60;;;50.83;;
25932;SDS011;13731;51.166;4.474;2023-04-25T02:36:36;41.95;;;38.85;;
25932;SDS011;13731;51.166;4.474;2023-04-25T02:39:02;46.33;;;42.05;;
25932;SDS011;13731;51.166;4.474;2023-04-25T02:41:28;49.08;;;45.40;;
25932;SDS011;13731;51.166;4.474;2023-04-25T02:43:54;51.50;;;47.33;;
25932;SDS011;13731;51.166;4.474;2023-04-25T02:46:20;63.50;;;58.50;;
25932;SDS011;13731;51.166;4.474;2023-04-25T02:48:46;63.40;;;58.50;;
25932;SDS011;13731;51.166;4.474;2023-04-25T02:51:12;66.68;;;61.55;;
25932;SDS011;13731;51.166;4.474;2023-04-25T02:53:38;69.95;;;64.70;;
25932;SDS011;13731;51.166;4.474;2023-04-25T02:56:04;67.40;;;62.67;;
25932;SDS011;13731;51.166;4.474;2023-04-25T02:58:30;74.25;;;69.13;;
25932;SDS011;13731;51.166;4.474;2023-04-25T03:00:56;75.32;;;69.43;;
25932;SDS011;13731;51.166;4.474;2023-04-25T03:03:22;75.72;;;70.55;;
25932;SDS011;13731;51.166;4.474;2023-04-25T03:05:48;74.68;;;69.53;;
25932;SDS011;13731;51.166;4.474;2023-04-25T03:08:19;77.80;;;72.82;;
25932;SDS011;13731;51.166;4.474;2023-04-25T03:10:45;80.97;;;75.43;;
25932;SDS011;13731;51.166;4.474;2023-04-25T03:13:13;80.85;;;74.72;;
25932;SDS011;13731;51.166;4.474;2023-04-25T03:15:41;83.35;;;78.13;;
25932;SDS011;13731;51.166;4.474;2023-04-25T03:18:06;87.43;;;81.63;;
25932;SDS011;13731;51.166;4.474;2023-04-25T03:20:32;96.63;;;89.75;;
25932;SDS011;13731;51.166;4.474;2023-04-25T03:22:58;92.45;;;86.25;;
25932;SDS011;13731;51.166;4.474;2023-04-25T03:25:26;93.97;;;87.47;;
25932;SDS011;13731;51.166;4.474;2023-04-25T03:27:52;99.72;;;93.32;;
25932;SDS011;13731;51.166;4.474;2023-04-25T03:30:18;104.00;;;97.20;;
25932;SDS011;13731;51.166;4.474;2023-04-25T03:32:44;88.03;;;82.47;;
25932;SDS011;13731;51.166;4.474;2023-04-25T03:35:14;93.25;;;86.25;;
25932;SDS011;13731;51.166;4.474;2023-04-25T03:37:40;93.82;;;86.55;;
25932;SDS011;13731;51.166;4.474;2023-04-25T03:40:10;95.97;;;89.22;;
25932;SDS011;13731;51.166;4.474;2023-04-25T03:42:57;103.13;;;96.18;;
25932;SDS011;13731;51.166;4.474;2023-04-25T03:45:23;98.55;;;92.47;;
25932;SDS011;13731;51.166;4.474;2023-04-25T03:47:49;104.68;;;97.03;;
25932;SDS011;13731;51.166;4.474;2023-04-25T03:50:15;99.05;;;91.63;;
25932;SDS011;13731;51.166;4.474;2023-04-25T03:52:41;101.90;;;95.25;;
25932;SDS011;13731;51.166;4.474;2023-04-25T03:55:08;102.00;;;94.45;;
25932;SDS011;13731;51.166;4.474;2023-04-25T03:57:35;97.93;;;91.40;;
25932;SDS011;13731;51.166;4.474;2023-04-25T04:00:01;97.60;;;91.18;;
25932;SDS011;13731;51.166;4.474;2023-04-25T04:02:38;98.22;;;91.85;;
25932;SDS011;13731;51.166;4.474;2023-04-25T04:05:05;96.38;;;89.85;;
25932;SDS011;13731;51.166;4.474;2023-04-25T04:07:34;102.20;;;94.97;;
25932;SDS011;13731;51.166;4.474;2023-04-25T04:10:06;106.30;;;98.70;;
25932;SDS011;13731;51.166;4.474;2023-04-25T04:12:36;110.50;;;103.68;;
25932;SDS011;13731;51.166;4.474;2023-04-25T04:15:02;103.63;;;96.88;;
25932;SDS011;13731;51.166;4.474;2023-04-25T04:17:29;105.88;;;99.57;;
25932;SDS011;13731;51.166;4.474;2023-04-25T04:19:56;101.22;;;94.95;;
25932;SDS011;13731;51.166;4.474;2023-04-25T04:22:22;90.57;;;84.40;;
25932;SDS011;13731;51.166;4.474;2023-04-25T04:24:50;92.25;;;85.95;;
25932;SDS011;13731;51.166;4.474;2023-04-25T04:27:21;91.40;;;85.55;;
25932;SDS011;13731;51.166;4.474;2023-04-25T04:29:53;93.95;;;87.40;;
25932;SDS011;13731;51.166;4.474;2023-04-25T04:32:46;83.38;;;77.95;;
25932;SDS011;13731;51.166;4.474;2023-04-25T04:35:11;77.70;;;72.97;;
25932;SDS011;13731;51.166;4.474;2023-04-25T04:37:38;69.40;;;64.93;;
25932;SDS011;13731;51.166;4.474;2023-04-25T04:40:05;79.05;;;74.22;;
25932;SDS011;13731;51.166;4.474;2023-04-25T04:42:51;71.13;;;66.95;;
25932;SDS011;13731;51.166;4.474;2023-04-25T04:45:33;66.65;;;62.60;;
25932;SDS011;13731;51.166;4.474;2023-04-25T04:48:35;71.38;;;66.75;;
25932;SDS011;13731;51.166;4.474;2023-04-25T04:51:23;71.30;;;66.90;;
25932;SDS011;13731;51.166;4.474;2023-04-25T04:54:21;74.90;;;70.05;;
25932;SDS011;13731;51.166;4.474;2023-04-25T04:57:10;66.15;;;62.25;;
25932;SDS011;13731;51.166;4.474;2023-04-25T04:59:54;66.82;;;62.33;;
25932;SDS011;13731;51.166;4.474;2023-04-25T05:02:40;64.68;;;61.05;;
25932;SDS011;13731;51.166;4.474;2023-04-25T05:05:27;61.78;;;57.78;;
25932;SDS011;13731;51.166;4.474;2023-04-25T05:08:16;68.70;;;64.07;;
25932;SDS011;13731;51.166;4.474;2023-04-25T05:11:07;65.10;;;60.08;;
25932;SDS011;13731;51.166;4.474;2023-04-25T05:13:47;57.80;;;53.17;;
25932;SDS011;13731;51.166;4.474;2023-04-25T05:16:31;58.28;;;53.88;;
25932;SDS011;13731;51.166;4.474;2023-04-25T05:19:15;56.05;;;52.15;;
25932;SDS011;13731;51.166;4.474;2023-04-25T05:21:48;58.90;;;54.85;;
25932;SDS011;13731;51.166;4.474;2023-04-25T05:24:30;62.28;;;57.97;;
25932;SDS011;13731;51.166;4.474;2023-04-25T05:27:23;55.15;;;50.45;;
25932;SDS011;13731;51.166;4.474;2023-04-25T05:30:13;57.33;;;53.75;;
25932;SDS011;13731;51.166;4.474;2023-04-25T05:32:57;54.55;;;50.65;;
25932;SDS011;13731;51.166;4.474;2023-04-25T05:35:23;53.97;;;49.95;;
25932;SDS011;13731;51.166;4.474;2023-04-25T05:37:49;62.65;;;58.00;;
25932;SDS011;13731;51.166;4.474;2023-04-25T05:40:17;65.28;;;60.55;;
25932;SDS011;13731;51.166;4.474;2023-04-25T05:42:43;69.20;;;63.95;;
25932;SDS011;13731;51.166;4.474;2023-04-25T05:45:18;64.20;;;60.15;;
25932;SDS011;13731;51.166;4.474;2023-04-25T05:47:51;61.40;;;57.03;;
25932;SDS011;13731;51.166;4.474;2023-04-25T05:50:35;64.35;;;60.25;;
25932;SDS011;13731;51.166;4.474;2023-04-25T05:53:20;61.03;;;56.47;;
25932;SDS011;13731;51.166;4.474;2023-04-25T05:55:53;56.30;;;51.83;;
25932;SDS011;13731;51.166;4.474;2023-04-25T05:58:24;62.33;;;58.03;;
25932;SDS011;13731;51.166;4.474;2023-04-25T06:00:50;64.85;;;59.95;;
25932;SDS011;13731;51.166;4.474;2023-04-25T06:03:16;69.70;;;64.70;;
25932;SDS011;13731;51.166;4.474;2023-04-25T06:05:44;64.72;;;60.00;;
25932;SDS011;13731;51.166;4.474;2023-04-25T06:08:09;64.55;;;60.22;;
25932;SDS011;13731;51.166;4.474;2023-04-25T06:10:37;67.85;;;62.58;;
25932;SDS011;13731;51.166;4.474;2023-04-25T06:13:03;68.93;;;64.25;;
25932;SDS011;13731;51.166;4.474;2023-04-25T06:15:32;64.18;;;59.20;;
25932;SDS011;13731;51.166;4.474;2023-04-25T06:17:59;53.58;;;49.78;;
25932;SDS011;13731;51.166;4.474;2023-04-25T06:20:25;52.10;;;48.40;;
25932;SDS011;13731;51.166;4.474;2023-04-25T06:22:53;49.80;;;46.22;;
25932;SDS011;13731;51.166;4.474;2023-04-25T06:25:26;35.50;;;32.45;;
25932;SDS011;13731;51.166;4.474;2023-04-25T06:27:53;40.53;;;37.40;;
25932;SDS011;13731;51.166;4.474;2023-04-25T06:30:20;36.65;;;33.60;;
25932;SDS011;13731;51.166;4.474;2023-04-25T06:32:52;35.97;;;32.80;;
25932;SDS011;13731;51.166;4.474;2023-04-25T06:35:18;36.40;;;33.35;;
25932;SDS011;13731;51.166;4.474;2023-04-25T06:37:45;40.28;;;37.75;;
25932;SDS011;13731;51.166;4.474;2023-04-25T06:40:10;40.60;;;37.80;;
25932;SDS011;13731;51.166;4.474;2023-04-25T06:42:36;40.72;;;38.13;;
25932;SDS011;13731;51.166;4.474;2023-04-25T06:45:22;39.75;;;36.38;;
25932;SDS011;13731;51.166;4.474;2023-04-25T06:47:48;39.92;;;36.85;;
25932;SDS011;13731;51.166;4.474;2023-04-25T06:50:15;38.08;;;35.35;;
25932;SDS011;13731;51.166;4.474;2023-04-25T06:52:41;37.63;;;35.03;;
25932;SDS011;13731;51.166;4.474;2023-04-25T06:55:07;43.97;;;40.67;;
25932;SDS011;13731;51.166;4.474;2023-04-25T06:57:47;32.35;;;30.05;;
25932;SDS011;13731;51.166;4.474;2023-04-25T07:00:42;48.67;;;45.28;;
25932;SDS011;13731;51.166;4.474;2023-04-25T07:03:08;45.65;;;42.65;;
25932;SDS011;13731;51.166;4.474;2023-04-25T07:05:33;39.85;;;37.15;;
25932;SDS011;13731;51.166;4.474;2023-04-25T07:07:59;44.20;;;41.22;;
25932;SDS011;13731;51.166;4.474;2023-04-25T07:10:26;45.40;;;42.55;;
25932;SDS011;13731;51.166;4.474;2023-04-25T07:12:52;49.65;;;46.30;;
25932;SDS011;13731;51.166;4.474;2023-04-25T07:15:18;45.53;;;42.42;;
25932;SDS011;13731;51.166;4.474;2023-04-25T07:17:47;43.95;;;41.08;;
25932;SDS011;13731;51.166;4.474;2023-04-25T07:20:13;46.10;;;42.97;;
25932;SDS011;13731;51.166;4.474;2023-04-25T07:22:39;44.28;;;41.22;;
25932;SDS011;13731;51.166;4.474;2023-04-25T07:25:05;42.22;;;39.05;;
25932;SDS011;13731;51.166;4.474;2023-04-25T07:27:32;40.50;;;37.92;;
25932;SDS011;13731;51.166;4.474;2023-04-25T07:30:07;43.90;;;38.58;;
25932;SDS011;13731;51.166;4.474;2023-04-25T07:32:34;40.72;;;38.20;;
25932;SDS011;13731;51.166;4.474;2023-04-25T07:35:00;43.10;;;40.10;;
25932;SDS011;13731;51.166;4.474;2023-04-25T07:37:27;47.60;;;44.80;;
25932;SDS011;13731;51.166;4.474;2023-04-25T07:40:05;40.25;;;37.05;;
25932;SDS011;13731;51.166;4.474;2023-04-25T07:42:31;41.35;;;38.00;;
25932;SDS011;13731;51.166;4.474;2023-04-25T07:44:57;47.00;;;43.78;;
25932;SDS011;13731;51.166;4.474;2023-04-25T07:47:23;39.45;;;36.70;;
25932;SDS011;13731;51.166;4.474;2023-04-25T07:49:51;39.70;;;37.17;;
25932;SDS011;13731;51.166;4.474;2023-04-25T07:52:17;45.90;;;42.50;;
25932;SDS011;13731;51.166;4.474;2023-04-25T07:54:48;40.75;;;37.65;;
25932;SDS011;13731;51.166;4.474;2023-04-25T07:57:19;39.58;;;37.45;;
25932;SDS011;13731;51.166;4.474;2023-04-25T07:59:47;38.00;;;35.72;;
25932;SDS011;13731;51.166;4.474;2023-04-25T08:02:13;34.60;;;32.33;;
25932;SDS011;13731;51.166;4.474;2023-04-25T08:04:39;38.95;;;36.35;;
25932;SDS011;13731;51.166;4.474;2023-04-25T08:07:07;39.67;;;36.93;;
25932;SDS011;13731;51.166;4.474;2023-04-25T08:09:41;38.60;;;35.85;;
25932;SDS011;13731;51.166;4.474;2023-04-25T08:12:14;35.97;;;33.33;;
25932;SDS011;13731;51.166;4.474;2023-04-25T08:14:40;43.10;;;40.25;;
25932;SDS011;13731;51.166;4.474;2023-04-25T08:17:06;43.38;;;40.53;;
25932;SDS011;13731;51.166;4.474;2023-04-25T08:19:38;38.15;;;35.40;;
25932;SDS011;13731;51.166;4.474;2023-04-25T08:22:05;40.05;;;37.13;;
25932;SDS011;13731;51.166;4.474;2023-04-25T08:24:42;35.28;;;33.50;;
25932;SDS011;13731;51.166;4.474;2023-04-25T08:27:08;51.78;;;49.20;;
25932;SDS011;13731;51.166;4.474;2023-04-25T08:29:34;36.83;;;34.72;;
25932;SDS011;13731;51.166;4.474;2023-04-25T08:32:01;38.10;;;36.00;;
25932;SDS011;13731;51.166;4.474;2023-04-25T08:34:28;28.52;;;26.58;;
25932;SDS011;13731;51.166;4.474;2023-04-25T08:36:54;30.60;;;28.48;;
25932;SDS011;13731;51.166;4.474;2023-04-25T08:39:40;24.33;;;22.58;;
25932;SDS011;13731;51.166;4.474;2023-04-25T08:42:27;33.50;;;31.35;;
25932;SDS011;13731;51.166;4.474;2023-04-25T08:44:54;31.63;;;29.60;;
25932;SDS011;13731;51.166;4.474;2023-04-25T08:47:24;32.25;;;30.15;;
25932;SDS011;13731;51.166;4.474;2023-04-25T08:49:55;25.65;;;23.95;;
25932;SDS011;13731;51.166;4.474;2023-04-25T08:52:22;24.42;;;22.55;;
25932;SDS011;13731;51.166;4.474;2023-04-25T08:57:18;27.58;;;25.42;;
25932;SDS011;13731;51.166;4.474;2023-04-25T08:59:47;23.83;;;22.00;;
25932;SDS011;13731;51.166;4.474;2023-04-25T09:02:14;39.95;;;37.85;;
25932;SDS011;13731;51.166;4.474;2023-04-25T09:04:45;24.65;;;22.83;;
25932;SDS011;13731;51.166;4.474;2023-04-25T09:07:12;25.50;;;23.42;;
25932;SDS011;13731;51.166;4.474;2023-04-25T09:09:41;20.17;;;19.08;;
25932;SDS011;13731;51.166;4.474;2023-04-25T09:12:07;19.58;;;18.33;;
25932;SDS011;13731;51.166;4.474;2023-04-25T09:14:34;18.77;;;17.42;;
25932;SDS011;13731;51.166;4.474;2023-04-25T09:17:07;17.75;;;16.02;;
25932;SDS011;13731;51.166;4.474;2023-04-25T09:19:38;19.20;;;17.98;;
25932;SDS011;13731;51.166;4.474;2023-04-25T09:22:09;20.35;;;18.88;;
25932;SDS011;13731;51.166;4.474;2023-04-25T09:24:36;17.38;;;16.30;;
25932;SDS011;13731;51.166;4.474;2023-04-25T09:27:07;21.20;;;19.58;;
25932;SDS011;13731;51.166;4.474;2023-04-25T09:29:43;19.17;;;17.63;;
25932;SDS011;13731;51.166;4.474;2023-04-25T09:32:11;22.55;;;21.05;;
25932;SDS011;13731;51.166;4.474;2023-04-25T09:34:41;21.10;;;19.30;;
25932;SDS011;13731;51.166;4.474;2023-04-25T09:37:10;15.65;;;14.30;;
25932;SDS011;13731;51.166;4.474;2023-04-25T09:40:08;17.98;;;16.77;;
25932;SDS011;13731;51.166;4.474;2023-04-25T09:42:49;15.48;;;14.25;;
25932;SDS011;13731;51.166;4.474;2023-04-25T09:45:15;15.07;;;13.63;;
25932;SDS011;13731;51.166;4.474;2023-04-25T09:47:43;12.38;;;11.57;;
25932;SDS011;13731;51.166;4.474;2023-04-25T09:50:14;15.77;;;14.50;;
25932;SDS011;13731;51.166;4.474;2023-04-25T09:52:44;13.45;;;12.35;;
25932;SDS011;13731;51.166;4.474;2023-04-25T09:55:18;15.55;;;14.07;;
25932;SDS011;13731;51.166;4.474;2023-04-25T09:57:45;15.02;;;13.80;;
25932;SDS011;13731;51.166;4.474;2023-04-25T10:00:16;16.17;;;15.18;;
25932;SDS011;13731;51.166;4.474;2023-04-25T10:02:43;15.07;;;13.90;;
25932;SDS011;13731;51.166;4.474;2023-04-25T10:05:32;13.07;;;12.18;;
25932;SDS011;13731;51.166;4.474;2023-04-25T10:08:02;13.52;;;12.55;;
25932;SDS011;13731;51.166;4.474;2023-04-25T10:10:31;10.95;;;9.95;;
25932;SDS011;13731;51.166;4.474;2023-04-25T10:15:31;12.57;;;11.35;;
25932;SDS011;13731;51.166;4.474;2023-04-25T10:18:00;12.85;;;12.13;;
25932;SDS011;13731;51.166;4.474;2023-04-25T10:20:26;12.73;;;11.57;;
25932;SDS011;13731;51.166;4.474;2023-04-25T10:22:52;14.40;;;13.30;;
25932;SDS011;13731;51.166;4.474;2023-04-25T10:25:22;17.30;;;16.10;;
25932;SDS011;13731;51.166;4.474;2023-04-25T10:27:51;14.38;;;13.30;;
25932;SDS011;13731;51.166;4.474;2023-04-25T10:30:17;15.98;;;14.63;;
25932;SDS011;13731;51.166;4.474;2023-04-25T10:32:43;13.73;;;12.85;;
25932;SDS011;13731;51.166;4.474;2023-04-25T10:35:16;17.83;;;16.20;;
25932;SDS011;13731;51.166;4.474;2023-04-25T10:38:11;17.83;;;16.23;;
25932;SDS011;13731;51.166;4.474;2023-04-25T10:40:39;17.23;;;16.05;;
25932;SDS011;13731;51.166;4.474;2023-04-25T10:46:17;21.85;;;14.25;;
25932;SDS011;13731;51.166;4.474;2023-04-25T10:48:54;15.73;;;14.75;;
25932;SDS011;13731;51.166;4.474;2023-04-25T10:51:22;15.70;;;14.55;;
25932;SDS011;13731;51.166;4.474;2023-04-25T10:56:27;18.25;;;16.75;;
25932;SDS011;13731;51.166;4.474;2023-04-25T10:59:04;20.70;;;19.13;;
25932;SDS011;13731;51.166;4.474;2023-04-25T11:01:36;18.33;;;17.07;;
25932;SDS011;13731;51.166;4.474;2023-04-25T11:04:06;18.92;;;17.73;;
25932;SDS011;13731;51.166;4.474;2023-04-25T11:09:49;13.38;;;12.57;;
25932;SDS011;13731;51.166;4.474;2023-04-25T11:12:15;11.88;;;11.20;;
25932;SDS011;13731;51.166;4.474;2023-04-25T11:14:42;12.10;;;11.27;;
25932;SDS011;13731;51.166;4.474;2023-04-25T11:17:08;10.65;;;10.05;;
25932;SDS011;13731;51.166;4.474;2023-04-25T11:19:35;9.82;;;9.23;;
25932;SDS011;13731;51.166;4.474;2023-04-25T11:22:02;10.48;;;9.82;;
25932;SDS011;13731;51.166;4.474;2023-04-25T11:24:32;9.88;;;9.13;;
25932;SDS011;13731;51.166;4.474;2023-04-25T11:26:59;10.30;;;9.13;;
25932;SDS011;13731;51.166;4.474;2023-04-25T11:29:27;8.55;;;7.97;;
25932;SDS011;13731;51.166;4.474;2023-04-25T11:31:54;9.35;;;8.85;;
25932;SDS011;13731;51.166;4.474;2023-04-25T11:34:23;13.85;;;10.25;;
25932;SDS011;13731;51.166;4.474;2023-04-25T11:36:50;8.30;;;7.90;;
25932;SDS011;13731;51.166;4.474;2023-04-25T11:39:20;7.97;;;7.47;;
25932;SDS011;13731;51.166;4.474;2023-04-25T11:41:46;10.07;;;9.38;;
25932;SDS011;13731;51.166;4.474;2023-04-25T11:44:15;11.88;;;10.93;;
25932;SDS011;13731;51.166;4.474;2023-04-25T11:46:42;11.43;;;10.63;;
25932;SDS011;13731;51.166;4.474;2023-04-25T11:49:08;14.13;;;12.90;;
25932;SDS011;13731;51.166;4.474;2023-04-25T11:51:41;11.05;;;10.30;;
25932;SDS011;13731;51.166;4.474;2023-04-25T11:54:08;11.40;;;10.70;;
25932;SDS011;13731;51.166;4.474;2023-04-25T11:56:34;12.00;;;10.88;;
25932;SDS011;13731;51.166;4.474;2023-04-25T11:59:01;13.02;;;12.05;;
25932;SDS011;13731;51.166;4.474;2023-04-25T12:01:35;13.90;;;13.02;;
25932;SDS011;13731;51.166;4.474;2023-04-25T12:04:11;10.30;;;9.60;;
25932;SDS011;13731;51.166;4.474;2023-04-25T12:06:41;10.45;;;9.55;;
25932;SDS011;13731;51.166;4.474;2023-04-25T12:09:09;11.63;;;10.65;;
25932;SDS011;13731;51.166;4.474;2023-04-25T12:11:46;9.85;;;9.10;;
25932;SDS011;13731;51.166;4.474;2023-04-25T12:14:23;11.35;;;10.63;;
25932;SDS011;13731;51.166;4.474;2023-04-25T12:16:52;12.50;;;11.75;;
25932;SDS011;13731;51.166;4.474;2023-04-25T12:19:20;11.87;;;10.90;;
25932;SDS011;13731;51.166;4.474;2023-04-25T12:21:46;9.50;;;8.98;;
25932;SDS011;13731;51.166;4.474;2023-04-25T12:24:23;8.77;;;8.02;;
25932;SDS011;13731;51.166;4.474;2023-04-25T12:29:38;9.32;;;8.70;;
25932;SDS011;13731;51.166;4.474;2023-04-25T12:32:04;9.27;;;8.35;;
25932;SDS011;13731;51.166;4.474;2023-04-25T12:34:31;10.02;;;9.13;;
25932;SDS011;13731;51.166;4.474;2023-04-25T12:37:00;15.68;;;14.55;;
25932;SDS011;13731;51.166;4.474;2023-04-25T12:39:25;10.30;;;9.40;;
25932;SDS011;13731;51.166;4.474;2023-04-25T12:41:51;11.57;;;10.90;;
25932;SDS011;13731;51.166;4.474;2023-04-25T12:44:19;10.52;;;9.88;;
25932;SDS011;13731;51.166;4.474;2023-04-25T12:46:45;10.25;;;9.65;;
25932;SDS011;13731;51.166;4.474;2023-04-25T12:49:11;11.00;;;10.30;;
25932;SDS011;13731;51.166;4.474;2023-04-25T12:51:37;12.27;;;11.27;;
25932;SDS011;13731;51.166;4.474;2023-04-25T12:54:04;11.32;;;10.57;;
25932;SDS011;13731;51.166;4.474;2023-04-25T12:56:32;12.47;;;11.07;;
25932;SDS011;13731;51.166;4.474;2023-04-25T12:58:58;9.13;;;8.32;;
25932;SDS011;13731;51.166;4.474;2023-04-25T13:01:25;9.90;;;8.98;;
25932;SDS011;13731;51.166;4.474;2023-04-25T13:03:52;8.65;;;8.02;;
25932;SDS011;13731;51.166;4.474;2023-04-25T13:06:18;8.77;;;8.07;;
25932;SDS011;13731;51.166;4.474;2023-04-25T13:08:45;10.38;;;9.35;;
25932;SDS011;13731;51.166;4.474;2023-04-25T13:11:11;13.55;;;12.52;;
25932;SDS011;13731;51.166;4.474;2023-04-25T13:13:37;12.35;;;11.50;;
25932;SDS011;13731;51.166;4.474;2023-04-25T13:16:05;10.40;;;9.57;;
25932;SDS011;13731;51.166;4.474;2023-04-25T13:18:31;10.80;;;9.93;;
25932;SDS011;13731;51.166;4.474;2023-04-25T13:20:57;10.43;;;9.52;;
25932;SDS011;13731;51.166;4.474;2023-04-25T13:23:25;11.35;;;10.32;;
25932;SDS011;13731;51.166;4.474;2023-04-25T13:25:52;12.88;;;11.95;;
25932;SDS011;13731;51.166;4.474;2023-04-25T13:28:18;9.25;;;8.55;;
25932;SDS011;13731;51.166;4.474;2023-04-25T13:30:45;8.13;;;7.32;;
25932;SDS011;13731;51.166;4.474;2023-04-25T13:33:14;8.65;;;7.88;;
25932;SDS011;13731;51.166;4.474;2023-04-25T13:35:40;8.57;;;7.88;;
25932;SDS011;13731;51.166;4.474;2023-04-25T13:38:06;11.23;;;10.52;;
25932;SDS011;13731;51.166;4.474;2023-04-25T13:40:33;10.13;;;9.05;;
25932;SDS011;13731;51.166;4.474;2023-04-25T13:42:58;9.50;;;8.70;;
25932;SDS011;13731;51.166;4.474;2023-04-25T13:45:24;10.00;;;9.07;;
25932;SDS011;13731;51.166;4.474;2023-04-25T13:47:50;10.73;;;8.82;;
25932;SDS011;13731;51.166;4.474;2023-04-25T13:50:16;10.57;;;9.60;;
25932;SDS011;13731;51.166;4.474;2023-04-25T13:52:42;10.10;;;9.40;;
25932;SDS011;13731;51.166;4.474;2023-04-25T13:55:08;10.10;;;9.15;;
25932;SDS011;13731;51.166;4.474;2023-04-25T13:57:35;9.00;;;8.23;;
25932;SDS011;13731;51.166;4.474;2023-04-25T14:00:02;10.38;;;9.68;;
25932;SDS011;13731;51.166;4.474;2023-04-25T14:02:36;10.45;;;9.45;;
25932;SDS011;13731;51.166;4.474;2023-04-25T14:05:03;10.75;;;9.55;;
25932;SDS011;13731;51.166;4.474;2023-04-25T14:07:29;11.32;;;8.52;;
25932;SDS011;13731;51.166;4.474;2023-04-25T14:09:55;9.80;;;7.85;;
25932;SDS011;13731;51.166;4.474;2023-04-25T14:12:22;9.05;;;8.40;;
25932;SDS011;13731;51.166;4.474;2023-04-25T14:14:48;9.13;;;8.52;;
25932;SDS011;13731;51.166;4.474;2023-04-25T14:17:14;9.43;;;8.57;;
25932;SDS011;13731;51.166;4.474;2023-04-25T14:19:40;9.85;;;8.90;;
25932;SDS011;13731;51.166;4.474;2023-04-25T14:22:10;10.23;;;9.32;;
25932;SDS011;13731;51.166;4.474;2023-04-25T14:24:36;9.23;;;8.30;;
25932;SDS011;13731;51.166;4.474;2023-04-25T14:27:03;11.15;;;10.20;;
25932;SDS011;13731;51.166;4.474;2023-04-25T14:29:29;10.85;;;10.35;;
25932;SDS011;13731;51.166;4.474;2023-04-25T14:31:55;11.63;;;10.85;;
25932;SDS011;13731;51.166;4.474;2023-04-25T14:34:22;11.90;;;11.10;;
25932;SDS011;13731;51.166;4.474;2023-04-25T14:36:48;10.23;;;9.40;;
25932;SDS011;13731;51.166;4.474;2023-04-25T14:39:14;9.98;;;9.27;;
25932;SDS011;13731;51.166;4.474;2023-04-25T14:41:41;11.40;;;9.88;;
25932;SDS011;13731;51.166;4.474;2023-04-25T14:44:07;8.48;;;7.75;;
25932;SDS011;13731;51.166;4.474;2023-04-25T14:46:33;8.25;;;7.53;;
25932;SDS011;13731;51.166;4.474;2023-04-25T14:48:59;9.77;;;8.80;;
25932;SDS011;13731;51.166;4.474;2023-04-25T14:51:25;9.80;;;9.10;;
25932;SDS011;13731;51.166;4.474;2023-04-25T14:53:51;10.40;;;9.32;;